首页
METAR-TAF:

METAR-TAF

机场 :

Lanseria, 南非共和國

纬度: 25-56S, 经度: 027-56E, 海拔: 1377米

当前天气观测

该预报发布于48分钟前的04:00 UTC
风速3节,风向,在南转南东西南之间变化
温度 7°C
湿度 76%
气压 1028 hPa
能見度: 9000

METAR: FALA 250400Z 19003KT 150V220 9000 NSC 07/03 Q1028 NOSIG

时间: 06:48 (04:48 UTC)

预报

该预报发布于6小时和48分钟前的22:00 UTC
预报有效从25日的 00点(UTC)到 25日的 24点(UTC)
风速3节,风向多变
能见度10公里或以上
1500米以下无云,无积雨云

TAF: FALA 242200Z 2500/2524 VRB03KT CAVOK TX23/2512Z TN08/2503Z

超过4000个机场的气象观测和天气预报(METAR&TAF报告)。

可查询的气象台以黄色和红色小点在地图上表示。

将鼠标移到小点上方,可查看气象台名称。

然后点击查看天气观测和预报。

如需切换地图:点击带黑十字的绿色按钮放大地图;点击带横线的绿色按钮缩小地图;或者点击绿色箭头查看邻近地区的地图。


METAR-TAF: